aviador You're here:

KLUK Decoded Metar

CINCINNATI in OH, USA
Report Time2018-07-17 10:53:00
UTC Time2018-07-17 11:41:52
Flight Rules vfr VFR
WindCalm
Visibility9999 m
Phenomena:N/A
Clouds:Broken 032 Hf
Expected CloudBase > 800 ft AGL from Temp-Dew spread
Ceiling3,200 ft
Temp24°C (ISA +10)
Dew Point22°C (89% RH)
QNH1015 hPa
Density Alt1,952 ft
Elevation509 ft
Report Wrong Elevation
Raw Report
KLUK 171053Z 00000KT 10SM BKN032 24/22 A2996 RMK AO2 SLP140
T02390217=

Extra information for KLUK:More info

Metar Taf Metar & Taf Last 4 Metars F.Rules Stats Wind Profile Meteogram Temp Stats Airport Information Weather charts Add Link Nearby VenuesMetar ALERT Operation Metar Decoded Social comments

AIRNAV info for KLUK